sensor_id;sensor_type;location;lat;lon;timestamp;noise_LAeq;noise_LA_min;noise_LA_max;noise_LA01;noise_LA95
17594;Laerm;8916;47.086;15.920;2022-10-16T00:01:57;49.03;47.81;50.36;;
17594;Laerm;8916;47.086;15.920;2022-10-16T00:04:26;49.02;47.90;50.11;;
17594;Laerm;8916;47.086;15.920;2022-10-16T00:06:56;49.03;47.74;50.11;;
17594;Laerm;8916;47.086;15.920;2022-10-16T00:09:25;49.02;47.74;50.31;;
17594;Laerm;8916;47.086;15.920;2022-10-16T00:11:54;49.03;47.79;50.20;;
17594;Laerm;8916;47.086;15.920;2022-10-16T00:14:25;49.04;47.70;50.13;;
17594;Laerm;8916;47.086;15.920;2022-10-16T00:16:54;49.04;47.91;50.29;;
17594;Laerm;8916;47.086;15.920;2022-10-16T00:19:24;49.03;47.88;50.26;;
17594;Laerm;8916;47.086;15.920;2022-10-16T00:21:53;49.03;47.79;50.21;;
17594;Laerm;8916;47.086;15.920;2022-10-16T00:24:22;49.04;47.98;50.30;;
17594;Laerm;8916;47.086;15.920;2022-10-16T00:26:51;49.06;47.98;50.13;;
17594;Laerm;8916;47.086;15.920;2022-10-16T00:29:20;49.04;48.00;50.16;;
17594;Laerm;8916;47.086;15.920;2022-10-16T00:31:51;49.05;47.96;50.53;;
17594;Laerm;8916;47.086;15.920;2022-10-16T00:34:20;49.05;48.05;50.11;;
17594;Laerm;8916;47.086;15.920;2022-10-16T00:36:49;49.04;47.86;50.25;;
17594;Laerm;8916;47.086;15.920;2022-10-16T00:39:18;49.04;47.63;50.26;;
17594;Laerm;8916;47.086;15.920;2022-10-16T00:41:47;49.05;48.08;50.23;;
17594;Laerm;8916;47.086;15.920;2022-10-16T00:44:44;49.05;47.95;50.54;;
17594;Laerm;8916;47.086;15.920;2022-10-16T00:47:24;49.04;47.90;50.06;;
17594;Laerm;8916;47.086;15.920;2022-10-16T00:50:00;49.04;47.96;50.44;;
17594;Laerm;8916;47.086;15.920;2022-10-16T00:52:32;49.04;47.77;50.22;;
17594;Laerm;8916;47.086;15.920;2022-10-16T00:55:03;49.04;47.88;50.34;;
17594;Laerm;8916;47.086;15.920;2022-10-16T00:57:32;49.04;47.84;50.35;;
17594;Laerm;8916;47.086;15.920;2022-10-16T01:00:03;49.04;47.96;50.18;;
17594;Laerm;8916;47.086;15.920;2022-10-16T01:02:34;49.03;47.95;50.27;;
17594;Laerm;8916;47.086;15.920;2022-10-16T01:05:05;49.03;47.63;50.29;;
17594;Laerm;8916;47.086;15.920;2022-10-16T01:07:43;49.03;47.98;50.42;;
17594;Laerm;8916;47.086;15.920;2022-10-16T01:10:25;49.05;47.96;50.24;;
17594;Laerm;8916;47.086;15.920;2022-10-16T01:13:00;49.04;47.95;50.08;;
17594;Laerm;8916;47.086;15.920;2022-10-16T01:15:37;49.04;47.76;50.16;;
17594;Laerm;8916;47.086;15.920;2022-10-16T01:18:14;49.04;47.63;50.16;;
17594;Laerm;8916;47.086;15.920;2022-10-16T01:20:49;49.04;47.90;50.28;;
17594;Laerm;8916;47.086;15.920;2022-10-16T01:23:31;49.04;47.98;50.21;;
17594;Laerm;8916;47.086;15.920;2022-10-16T01:26:31;49.04;47.84;50.08;;
17594;Laerm;8916;47.086;15.920;2022-10-16T01:29:12;49.04;47.83;50.19;;
17594;Laerm;8916;47.086;15.920;2022-10-16T01:31:49;49.04;47.81;50.33;;
17594;Laerm;8916;47.086;15.920;2022-10-16T01:34:25;49.03;47.86;50.15;;
17594;Laerm;8916;47.086;15.920;2022-10-16T01:37:02;49.03;48.07;50.29;;
17594;Laerm;8916;47.086;15.920;2022-10-16T01:39:35;49.03;47.76;50.42;;
17594;Laerm;8916;47.086;15.920;2022-10-16T01:42:12;49.02;47.98;50.12;;
17594;Laerm;8916;47.086;15.920;2022-10-16T01:44:46;49.02;48.08;50.25;;
17594;Laerm;8916;47.086;15.920;2022-10-16T01:47:17;49.03;47.84;50.27;;
17594;Laerm;8916;47.086;15.920;2022-10-16T01:49:49;49.04;48.05;50.19;;
17594;Laerm;8916;47.086;15.920;2022-10-16T01:52:22;49.04;48.07;50.15;;
17594;Laerm;8916;47.086;15.920;2022-10-16T01:54:55;49.03;47.88;50.35;;
17594;Laerm;8916;47.086;15.920;2022-10-16T01:57:26;49.03;47.93;50.36;;
17594;Laerm;8916;47.086;15.920;2022-10-16T02:00:05;49.03;48.02;50.28;;
17594;Laerm;8916;47.086;15.920;2022-10-16T02:02:41;49.02;48.02;50.31;;
17594;Laerm;8916;47.086;15.920;2022-10-16T02:05:18;49.02;47.91;50.29;;
17594;Laerm;8916;47.086;15.920;2022-10-16T02:07:50;49.03;48.05;50.21;;
17594;Laerm;8916;47.086;15.920;2022-10-16T02:10:19;49.03;47.88;50.26;;
17594;Laerm;8916;47.086;15.920;2022-10-16T02:12:55;49.02;47.86;50.20;;
17594;Laerm;8916;47.086;15.920;2022-10-16T02:15:27;49.02;47.81;50.36;;
17594;Laerm;8916;47.086;15.920;2022-10-16T02:17:57;49.03;47.91;50.09;;
17594;Laerm;8916;47.086;15.920;2022-10-16T02:20:28;49.02;47.88;50.15;;
17594;Laerm;8916;47.086;15.920;2022-10-16T02:23:01;49.03;47.88;50.05;;
17594;Laerm;8916;47.086;15.920;2022-10-16T02:25:36;49.02;47.84;50.32;;
17594;Laerm;8916;47.086;15.920;2022-10-16T02:28:10;49.03;47.86;50.14;;
17594;Laerm;8916;47.086;15.920;2022-10-16T02:30:51;49.03;47.91;50.40;;
17594;Laerm;8916;47.086;15.920;2022-10-16T02:33:23;49.03;47.98;50.30;;
17594;Laerm;8916;47.086;15.920;2022-10-16T02:35:54;49.02;47.93;50.17;;
17594;Laerm;8916;47.086;15.920;2022-10-16T02:38:25;49.03;47.95;50.11;;
17594;Laerm;8916;47.086;15.920;2022-10-16T02:40:55;49.04;47.91;50.37;;
17594;Laerm;8916;47.086;15.920;2022-10-16T02:43:25;49.03;47.76;50.05;;
17594;Laerm;8916;47.086;15.920;2022-10-16T02:45:56;49.03;48.07;50.08;;
17594;Laerm;8916;47.086;15.920;2022-10-16T02:48:25;49.03;47.95;50.21;;
17594;Laerm;8916;47.086;15.920;2022-10-16T02:50:54;49.02;47.90;50.19;;
17594;Laerm;8916;47.086;15.920;2022-10-16T02:53:24;49.02;47.91;50.12;;
17594;Laerm;8916;47.086;15.920;2022-10-16T02:55:53;49.03;48.00;50.19;;
17594;Laerm;8916;47.086;15.920;2022-10-16T02:58:23;49.03;47.74;50.13;;
17594;Laerm;8916;47.086;15.920;2022-10-16T03:00:52;49.01;47.90;50.24;;
17594;Laerm;8916;47.086;15.920;2022-10-16T03:03:23;49.02;47.91;50.16;;
17594;Laerm;8916;47.086;15.920;2022-10-16T03:05:52;49.02;47.54;50.15;;
17594;Laerm;8916;47.086;15.920;2022-10-16T03:08:21;49.01;47.95;50.24;;
17594;Laerm;8916;47.086;15.920;2022-10-16T03:10:52;49.02;47.95;50.25;;
17594;Laerm;8916;47.086;15.920;2022-10-16T03:13:21;49.02;47.84;50.11;;
17594;Laerm;8916;47.086;15.920;2022-10-16T03:15:51;49.03;47.93;50.21;;
17594;Laerm;8916;47.086;15.920;2022-10-16T03:18:21;49.01;47.76;50.35;;
17594;Laerm;8916;47.086;15.920;2022-10-16T03:20:50;49.02;47.77;50.13;;
17594;Laerm;8916;47.086;15.920;2022-10-16T03:23:19;49.02;47.93;50.35;;
17594;Laerm;8916;47.086;15.920;2022-10-16T03:25:48;49.02;47.77;50.20;;
17594;Laerm;8916;47.086;15.920;2022-10-16T03:28:18;49.02;48.05;50.25;;
17594;Laerm;8916;47.086;15.920;2022-10-16T03:30:47;49.01;47.50;50.08;;
17594;Laerm;8916;47.086;15.920;2022-10-16T03:33:16;49.01;47.88;50.23;;
17594;Laerm;8916;47.086;15.920;2022-10-16T03:35:52;49.01;47.95;50.07;;
17594;Laerm;8916;47.086;15.920;2022-10-16T03:38:22;49.02;47.93;50.24;;
17594;Laerm;8916;47.086;15.920;2022-10-16T03:40:51;49.02;48.03;50.17;;
17594;Laerm;8916;47.086;15.920;2022-10-16T03:43:21;49.02;48.02;50.14;;
17594;Laerm;8916;47.086;15.920;2022-10-16T03:45:50;49.01;47.95;50.02;;
17594;Laerm;8916;47.086;15.920;2022-10-16T03:48:20;49.02;47.88;50.47;;
17594;Laerm;8916;47.086;15.920;2022-10-16T03:50:49;49.02;47.77;50.23;;
17594;Laerm;8916;47.086;15.920;2022-10-16T03:53:20;49.02;48.07;50.20;;
17594;Laerm;8916;47.086;15.920;2022-10-16T03:55:50;49.03;47.84;50.40;;
17594;Laerm;8916;47.086;15.920;2022-10-16T03:58:19;49.02;47.90;50.13;;
17594;Laerm;8916;47.086;15.920;2022-10-16T04:00:48;49.04;47.63;50.17;;
17594;Laerm;8916;47.086;15.920;2022-10-16T04:03:18;49.04;47.95;50.07;;
17594;Laerm;8916;47.086;15.920;2022-10-16T04:05:47;49.03;48.08;50.21;;
17594;Laerm;8916;47.086;15.920;2022-10-16T04:08:16;49.04;47.68;50.34;;
17594;Laerm;8916;47.086;15.920;2022-10-16T04:10:48;49.03;47.91;50.24;;
17594;Laerm;8916;47.086;15.920;2022-10-16T04:13:17;49.05;48.02;50.19;;
17594;Laerm;8916;47.086;15.920;2022-10-16T04:15:46;49.04;47.79;50.21;;
17594;Laerm;8916;47.086;15.920;2022-10-16T04:18:15;49.04;47.95;50.34;;
17594;Laerm;8916;47.086;15.920;2022-10-16T04:20:44;49.03;47.90;50.13;;
17594;Laerm;8916;47.086;15.920;2022-10-16T04:23:14;49.03;47.95;50.12;;
17594;Laerm;8916;47.086;15.920;2022-10-16T04:25:43;49.03;48.00;50.22;;
17594;Laerm;8916;47.086;15.920;2022-10-16T04:28:13;49.03;47.79;50.12;;
17594;Laerm;8916;47.086;15.920;2022-10-16T04:30:42;49.03;47.91;50.15;;
17594;Laerm;8916;47.086;15.920;2022-10-16T04:33:11;49.03;47.70;50.02;;
17594;Laerm;8916;47.086;15.920;2022-10-16T04:35:41;49.03;47.93;50.11;;
17594;Laerm;8916;47.086;15.920;2022-10-16T04:38:10;49.03;47.79;50.26;;
17594;Laerm;8916;47.086;15.920;2022-10-16T04:40:41;49.03;48.00;50.18;;
17594;Laerm;8916;47.086;15.920;2022-10-16T04:43:10;49.04;48.00;50.13;;
17594;Laerm;8916;47.086;15.920;2022-10-16T04:45:41;49.04;47.93;50.16;;
17594;Laerm;8916;47.086;15.920;2022-10-16T04:48:10;49.04;47.98;50.27;;
17594;Laerm;8916;47.086;15.920;2022-10-16T04:50:39;49.04;47.88;50.38;;
17594;Laerm;8916;47.086;15.920;2022-10-16T04:53:09;49.04;48.00;50.06;;
17594;Laerm;8916;47.086;15.920;2022-10-16T04:55:39;49.03;47.81;50.16;;
17594;Laerm;8916;47.086;15.920;2022-10-16T04:58:08;49.03;47.88;50.28;;
17594;Laerm;8916;47.086;15.920;2022-10-16T05:00:38;49.03;48.02;50.14;;
17594;Laerm;8916;47.086;15.920;2022-10-16T05:03:09;49.03;47.86;50.23;;
17594;Laerm;8916;47.086;15.920;2022-10-16T05:05:43;49.03;47.91;50.15;;
17594;Laerm;8916;47.086;15.920;2022-10-16T05:08:14;49.03;47.77;50.23;;
17594;Laerm;8916;47.086;15.920;2022-10-16T05:10:44;49.04;48.03;50.06;;
17594;Laerm;8916;47.086;15.920;2022-10-16T05:13:13;49.03;47.82;50.39;;
17594;Laerm;8916;47.086;15.920;2022-10-16T05:15:47;49.03;48.07;50.05;;
17594;Laerm;8916;47.086;15.920;2022-10-16T05:18:18;49.03;47.98;50.30;;
17594;Laerm;8916;47.086;15.920;2022-10-16T05:20:47;49.04;47.68;50.09;;
17594;Laerm;8916;47.086;15.920;2022-10-16T05:23:16;49.03;47.90;50.24;;
17594;Laerm;8916;47.086;15.920;2022-10-16T05:25:53;49.03;47.86;50.26;;
17594;Laerm;8916;47.086;15.920;2022-10-16T05:28:22;49.03;47.77;50.40;;
17594;Laerm;8916;47.086;15.920;2022-10-16T05:30:51;49.03;47.96;50.07;;
17594;Laerm;8916;47.086;15.920;2022-10-16T05:33:25;49.04;47.76;50.12;;
17594;Laerm;8916;47.086;15.920;2022-10-16T05:35:54;49.04;47.98;50.17;;
17594;Laerm;8916;47.086;15.920;2022-10-16T05:38:23;49.04;47.83;50.32;;
17594;Laerm;8916;47.086;15.920;2022-10-16T05:40:54;49.05;47.91;50.21;;
17594;Laerm;8916;47.086;15.920;2022-10-16T05:43:24;49.03;47.77;50.19;;
17594;Laerm;8916;47.086;15.920;2022-10-16T05:45:57;49.02;47.91;50.13;;
17594;Laerm;8916;47.086;15.920;2022-10-16T05:48:28;49.03;47.74;50.30;;
17594;Laerm;8916;47.086;15.920;2022-10-16T05:50:58;49.03;47.91;50.13;;
17594;Laerm;8916;47.086;15.920;2022-10-16T05:53:29;49.04;47.91;50.11;;
17594;Laerm;8916;47.086;15.920;2022-10-16T05:55:59;49.03;47.90;50.47;;
17594;Laerm;8916;47.086;15.920;2022-10-16T05:58:30;49.05;47.77;50.18;;
17594;Laerm;8916;47.086;15.920;2022-10-16T06:01:02;49.04;47.88;50.31;;
17594;Laerm;8916;47.086;15.920;2022-10-16T06:03:34;49.04;47.95;50.35;;
17594;Laerm;8916;47.086;15.920;2022-10-16T06:06:08;49.03;47.88;50.06;;
17594;Laerm;8916;47.086;15.920;2022-10-16T06:08:39;49.03;47.74;50.11;;
17594;Laerm;8916;47.086;15.920;2022-10-16T06:11:11;49.03;47.73;50.36;;
17594;Laerm;8916;47.086;15.920;2022-10-16T06:13:40;49.02;47.93;50.44;;
17594;Laerm;8916;47.086;15.920;2022-10-16T06:16:11;49.02;47.90;50.23;;
17594;Laerm;8916;47.086;15.920;2022-10-16T06:18:41;49.02;48.02;50.14;;
17594;Laerm;8916;47.086;15.920;2022-10-16T06:21:14;49.01;47.88;50.14;;
17594;Laerm;8916;47.086;15.920;2022-10-16T06:23:45;49.01;47.79;50.04;;
17594;Laerm;8916;47.086;15.920;2022-10-16T06:26:17;48.99;47.84;50.18;;
17594;Laerm;8916;47.086;15.920;2022-10-16T06:28:46;49.00;47.81;50.15;;
17594;Laerm;8916;47.086;15.920;2022-10-16T06:31:17;49.00;47.88;50.16;;
17594;Laerm;8916;47.086;15.920;2022-10-16T06:33:51;49.00;47.81;50.13;;
17594;Laerm;8916;47.086;15.920;2022-10-16T06:36:20;48.99;47.81;50.28;;
17594;Laerm;8916;47.086;15.920;2022-10-16T06:38:50;48.99;47.74;50.24;;
17594;Laerm;8916;47.086;15.920;2022-10-16T06:41:21;48.97;47.70;50.18;;
17594;Laerm;8916;47.086;15.920;2022-10-16T06:43:51;48.96;47.90;50.24;;
17594;Laerm;8916;47.086;15.920;2022-10-16T06:46:23;48.94;47.96;50.23;;
17594;Laerm;8916;47.086;15.920;2022-10-16T06:48:54;48.93;47.65;50.01;;
17594;Laerm;8916;47.086;15.920;2022-10-16T06:51:24;48.91;47.81;50.03;;
17594;Laerm;8916;47.086;15.920;2022-10-16T06:53:55;48.90;47.81;50.05;;
17594;Laerm;8916;47.086;15.920;2022-10-16T06:56:31;48.89;47.74;50.08;;
17594;Laerm;8916;47.086;15.920;2022-10-16T06:59:01;48.87;47.83;50.19;;
17594;Laerm;8916;47.086;15.920;2022-10-16T07:01:31;48.86;47.79;50.02;;
17594;Laerm;8916;47.086;15.920;2022-10-16T07:04:02;48.85;47.79;50.10;;
17594;Laerm;8916;47.086;15.920;2022-10-16T07:06:33;48.84;47.72;49.89;;
17594;Laerm;8916;47.086;15.920;2022-10-16T07:09:05;48.83;47.68;50.04;;
17594;Laerm;8916;47.086;15.920;2022-10-16T07:11:37;48.82;47.70;50.23;;
17594;Laerm;8916;47.086;15.920;2022-10-16T07:14:16;48.81;47.76;50.15;;
17594;Laerm;8916;47.086;15.920;2022-10-16T07:16:46;48.80;47.79;50.02;;
17594;Laerm;8916;47.086;15.920;2022-10-16T07:19:18;48.81;47.74;50.08;;
17594;Laerm;8916;47.086;15.920;2022-10-16T07:21:47;48.80;47.48;49.92;;
17594;Laerm;8916;47.086;15.920;2022-10-16T07:24:17;48.79;47.57;50.16;;
17594;Laerm;8916;47.086;15.920;2022-10-16T07:26:48;48.78;47.67;50.08;;
17594;Laerm;8916;47.086;15.920;2022-10-16T07:29:21;48.77;47.59;49.95;;
17594;Laerm;8916;47.086;15.920;2022-10-16T07:31:50;48.76;47.76;49.92;;
17594;Laerm;8916;47.086;15.920;2022-10-16T07:34:21;48.74;47.52;50.30;;
17594;Laerm;8916;47.086;15.920;2022-10-16T07:36:51;48.73;47.63;49.94;;
17594;Laerm;8916;47.086;15.920;2022-10-16T07:39:20;48.70;47.59;49.87;;
17594;Laerm;8916;47.086;15.920;2022-10-16T07:41:49;48.70;47.38;49.94;;
17594;Laerm;8916;47.086;15.920;2022-10-16T07:44:19;48.67;47.54;50.24;;
17594;Laerm;8916;47.086;15.920;2022-10-16T07:46:48;48.67;47.67;49.79;;
17594;Laerm;8916;47.086;15.920;2022-10-16T07:49:17;48.66;47.55;50.09;;
17594;Laerm;8916;47.086;15.920;2022-10-16T07:51:48;48.65;47.59;49.80;;
17594;Laerm;8916;47.086;15.920;2022-10-16T07:54:17;48.63;47.54;49.80;;
17594;Laerm;8916;47.086;15.920;2022-10-16T07:56:48;48.62;47.46;49.98;;
17594;Laerm;8916;47.086;15.920;2022-10-16T07:59:17;48.61;47.36;49.80;;
17594;Laerm;8916;47.086;15.920;2022-10-16T08:01:48;48.59;47.57;50.08;;
17594;Laerm;8916;47.086;15.920;2022-10-16T08:04:18;48.56;47.55;49.92;;
17594;Laerm;8916;47.086;15.920;2022-10-16T08:06:48;48.55;47.50;50.04;;
17594;Laerm;8916;47.086;15.920;2022-10-16T08:09:19;48.56;47.38;49.70;;
17594;Laerm;8916;47.086;15.920;2022-10-16T08:11:48;48.56;47.44;49.71;;
17594;Laerm;8916;47.086;15.920;2022-10-16T08:14:19;48.54;47.55;49.73;;
17594;Laerm;8916;47.086;15.920;2022-10-16T08:16:48;48.53;47.36;49.77;;
17594;Laerm;8916;47.086;15.920;2022-10-16T08:19:17;48.51;47.40;49.57;;
17594;Laerm;8916;47.086;15.920;2022-10-16T08:21:55;48.49;47.32;49.60;;
17594;Laerm;8916;47.086;15.920;2022-10-16T08:24:31;48.50;47.28;49.59;;
17594;Laerm;8916;47.086;15.920;2022-10-16T08:27:03;48.49;47.22;49.65;;
17594;Laerm;8916;47.086;15.920;2022-10-16T08:29:32;48.48;47.24;49.67;;
17594;Laerm;8916;47.086;15.920;2022-10-16T08:32:04;48.48;47.38;49.63;;
17594;Laerm;8916;47.086;15.920;2022-10-16T08:37:17;48.46;47.38;49.69;;
17594;Laerm;8916;47.086;15.920;2022-10-16T08:39:46;48.46;47.40;49.66;;
17594;Laerm;8916;47.086;15.920;2022-10-16T08:42:26;48.45;47.30;49.59;;
17594;Laerm;8916;47.086;15.920;2022-10-16T08:45:24;48.42;47.32;49.53;;
17594;Laerm;8916;47.086;15.920;2022-10-16T08:48:13;48.42;47.24;49.71;;
17594;Laerm;8916;47.086;15.920;2022-10-16T08:50:44;48.41;47.34;49.75;;
17594;Laerm;8916;47.086;15.920;2022-10-16T08:53:20;48.37;47.28;49.77;;
17594;Laerm;8916;47.086;15.920;2022-10-16T08:55:53;48.39;47.26;49.59;;
17594;Laerm;8916;47.086;15.920;2022-10-16T08:58:28;48.38;47.24;49.75;;
17594;Laerm;8916;47.086;15.920;2022-10-16T09:01:01;48.35;47.16;49.51;;
17594;Laerm;8916;47.086;15.920;2022-10-16T09:04:07;48.39;47.02;49.59;;
17594;Laerm;8916;47.086;15.920;2022-10-16T09:06:49;48.37;47.18;49.71;;
17594;Laerm;8916;47.086;15.920;2022-10-16T09:09:42;48.36;47.04;49.64;;
17594;Laerm;8916;47.086;15.920;2022-10-16T09:12:20;48.35;47.24;49.71;;
17594;Laerm;8916;47.086;15.920;2022-10-16T09:15:03;48.34;47.00;49.70;;
17594;Laerm;8916;47.086;15.920;2022-10-16T09:17:48;48.33;47.26;49.50;;
17594;Laerm;8916;47.086;15.920;2022-10-16T09:20:32;48.32;47.32;49.52;;
17594;Laerm;8916;47.086;15.920;2022-10-16T09:23:18;48.32;47.14;49.95;;
17594;Laerm;8916;47.086;15.920;2022-10-16T09:25:50;48.32;47.00;49.62;;
17594;Laerm;8916;47.086;15.920;2022-10-16T09:28:19;48.32;47.06;49.58;;
17594;Laerm;8916;47.086;15.920;2022-10-16T09:30:50;48.30;47.14;49.55;;
17594;Laerm;8916;47.086;15.920;2022-10-16T09:33:25;48.29;47.04;49.44;;
17594;Laerm;8916;47.086;15.920;2022-10-16T09:35:58;48.28;47.18;49.58;;
17594;Laerm;8916;47.086;15.920;2022-10-16T09:38:30;48.33;47.18;49.53;;
17594;Laerm;8916;47.086;15.920;2022-10-16T09:41:10;48.40;47.26;49.75;;
17594;Laerm;8916;47.086;15.920;2022-10-16T09:43:47;48.34;47.22;49.43;;
17594;Laerm;8916;47.086;15.920;2022-10-16T09:46:36;48.40;47.20;49.56;;
17594;Laerm;8916;47.086;15.920;2022-10-16T09:49:21;48.45;47.30;49.62;;
17594;Laerm;8916;47.086;15.920;2022-10-16T09:52:02;48.49;47.20;50.36;;
17594;Laerm;8916;47.086;15.920;2022-10-16T09:54:32;48.51;47.32;49.78;;
17594;Laerm;8916;47.086;15.920;2022-10-16T09:57:07;48.52;47.40;49.73;;
17594;Laerm;8916;47.086;15.920;2022-10-16T09:59:46;48.53;47.44;49.65;;
17594;Laerm;8916;47.086;15.920;2022-10-16T10:02:18;48.55;47.52;49.78;;
17594;Laerm;8916;47.086;15.920;2022-10-16T10:04:50;48.50;47.34;49.73;;
17594;Laerm;8916;47.086;15.920;2022-10-16T10:07:26;48.44;47.44;49.63;;
17594;Laerm;8916;47.086;15.920;2022-10-16T10:09:57;48.40;47.32;49.70;;
17594;Laerm;8916;47.086;15.920;2022-10-16T10:12:29;48.43;47.36;49.57;;
17594;Laerm;8916;47.086;15.920;2022-10-16T10:15:06;48.45;47.34;49.64;;
17594;Laerm;8916;47.086;15.920;2022-10-16T10:17:46;48.43;47.36;49.69;;
17594;Laerm;8916;47.086;15.920;2022-10-16T10:20:25;48.35;47.20;49.79;;
17594;Laerm;8916;47.086;15.920;2022-10-16T10:22:55;48.37;47.34;49.44;;
17594;Laerm;8916;47.086;15.920;2022-10-16T10:25:48;48.46;47.26;49.87;;
17594;Laerm;8916;47.086;15.920;2022-10-16T10:31:24;48.35;47.12;49.47;;
17594;Laerm;8916;47.086;15.920;2022-10-16T10:34:04;48.41;47.28;49.58;;
17594;Laerm;8916;47.086;15.920;2022-10-16T10:36:41;48.45;47.36;49.58;;
17594;Laerm;8916;47.086;15.920;2022-10-16T10:39:16;48.48;47.38;49.88;;
17594;Laerm;8916;47.086;15.920;2022-10-16T10:42:06;48.50;47.40;49.63;;
17594;Laerm;8916;47.086;15.920;2022-10-16T10:47:52;48.53;47.40;49.75;;
17594;Laerm;8916;47.086;15.920;2022-10-16T10:50:33;48.52;47.42;49.69;;
17594;Laerm;8916;47.086;15.920;2022-10-16T10:53:21;48.52;47.50;49.82;;
17594;Laerm;8916;47.086;15.920;2022-10-16T10:56:04;48.52;47.44;49.80;;
17594;Laerm;8916;47.086;15.920;2022-10-16T10:59:02;48.52;47.28;49.69;;
17594;Laerm;8916;47.086;15.920;2022-10-16T11:01:46;48.54;47.44;49.90;;
17594;Laerm;8916;47.086;15.920;2022-10-16T11:04:43;48.54;47.48;49.82;;
17594;Laerm;8916;47.086;15.920;2022-10-16T11:07:19;48.53;47.50;49.69;;
17594;Laerm;8916;47.086;15.920;2022-10-16T11:09:56;48.53;47.36;49.70;;
17594;Laerm;8916;47.086;15.920;2022-10-16T11:12:31;48.54;47.38;49.81;;
17594;Laerm;8916;47.086;15.920;2022-10-16T11:15:10;48.53;47.48;49.93;;
17594;Laerm;8916;47.086;15.920;2022-10-16T11:17:49;48.55;47.42;49.80;;
17594;Laerm;8916;47.086;15.920;2022-10-16T11:20:23;48.54;47.34;49.85;;
17594;Laerm;8916;47.086;15.920;2022-10-16T11:22:58;48.54;47.28;49.89;;
17594;Laerm;8916;47.086;15.920;2022-10-16T11:25:31;48.53;47.42;49.73;;
17594;Laerm;8916;47.086;15.920;2022-10-16T11:28:06;48.53;47.22;49.72;;
17594;Laerm;8916;47.086;15.920;2022-10-16T11:30:44;48.52;47.28;49.63;;
17594;Laerm;8916;47.086;15.920;2022-10-16T11:33:28;48.51;47.42;49.79;;
17594;Laerm;8916;47.086;15.920;2022-10-16T11:36:08;48.52;47.22;49.81;;
17594;Laerm;8916;47.086;15.920;2022-10-16T11:38:48;48.52;47.32;49.92;;
17594;Laerm;8916;47.086;15.920;2022-10-16T11:41:28;48.48;47.32;49.85;;
17594;Laerm;8916;47.086;15.920;2022-10-16T11:44:19;48.47;47.38;49.74;;
17594;Laerm;8916;47.086;15.920;2022-10-16T11:46:58;48.48;47.22;49.74;;
17594;Laerm;8916;47.086;15.920;2022-10-16T11:49:55;48.47;47.34;49.64;;
17594;Laerm;8916;47.086;15.920;2022-10-16T11:52:35;48.47;47.24;49.70;;
17594;Laerm;8916;47.086;15.920;2022-10-16T11:55:15;48.46;47.36;49.67;;
17594;Laerm;8916;47.086;15.920;2022-10-16T11:57:48;48.46;47.36;49.63;;
17594;Laerm;8916;47.086;15.920;2022-10-16T12:00:26;48.43;47.38;49.52;;
17594;Laerm;8916;47.086;15.920;2022-10-16T12:03:03;48.43;47.34;49.62;;
17594;Laerm;8916;47.086;15.920;2022-10-16T12:05:55;48.46;47.38;49.57;;
17594;Laerm;8916;47.086;15.920;2022-10-16T12:08:26;48.48;46.82;49.64;;
17594;Laerm;8916;47.086;15.920;2022-10-16T12:11:07;48.48;47.30;49.85;;
17594;Laerm;8916;47.086;15.920;2022-10-16T12:13:41;48.46;47.14;49.60;;
17594;Laerm;8916;47.086;15.920;2022-10-16T12:16:23;48.45;47.34;49.67;;
17594;Laerm;8916;47.086;15.920;2022-10-16T12:19:12;48.41;47.24;49.75;;
17594;Laerm;8916;47.086;15.920;2022-10-16T12:21:43;48.41;47.32;49.91;;
17594;Laerm;8916;47.086;15.920;2022-10-16T12:24:33;48.43;47.28;49.65;;
17594;Laerm;8916;47.086;15.920;2022-10-16T12:27:05;48.45;47.30;49.50;;
17594;Laerm;8916;47.086;15.920;2022-10-16T12:29:37;48.45;47.28;49.79;;
17594;Laerm;8916;47.086;15.920;2022-10-16T12:32:27;48.45;47.08;49.70;;
17594;Laerm;8916;47.086;15.920;2022-10-16T12:35:20;48.45;47.26;49.89;;
17594;Laerm;8916;47.086;15.920;2022-10-16T12:37:53;48.45;47.39;49.66;;
17594;Laerm;8916;47.086;15.920;2022-10-16T12:40:27;48.45;47.36;49.98;;
17594;Laerm;8916;47.086;15.920;2022-10-16T12:42:58;48.45;47.28;49.70;;
17594;Laerm;8916;47.086;15.920;2022-10-16T12:45:30;48.44;47.46;49.82;;
17594;Laerm;8916;47.086;15.920;2022-10-16T12:48:04;48.41;47.12;49.53;;
17594;Laerm;8916;47.086;15.920;2022-10-16T12:50:36;48.41;47.20;49.56;;
17594;Laerm;8916;47.086;15.920;2022-10-16T12:53:19;48.42;47.32;49.96;;
17594;Laerm;8916;47.086;15.920;2022-10-16T12:56:01;48.43;46.93;49.65;;
17594;Laerm;8916;47.086;15.920;2022-10-16T12:58:51;48.44;47.06;49.73;;
17594;Laerm;8916;47.086;15.920;2022-10-16T13:01:46;48.43;47.22;49.97;;
17594;Laerm;8916;47.086;15.920;2022-10-16T13:04:39;48.43;47.26;49.63;;
17594;Laerm;8916;47.086;15.920;2022-10-16T13:07:27;48.43;47.30;49.55;;
17594;Laerm;8916;47.086;15.920;2022-10-16T13:10:15;48.37;47.28;49.73;;
17594;Laerm;8916;47.086;15.920;2022-10-16T13:13:04;48.33;46.95;49.63;;
17594;Laerm;8916;47.086;15.920;2022-10-16T13:15:53;48.35;47.14;49.44;;
17594;Laerm;8916;47.086;15.920;2022-10-16T13:18:29;48.38;47.24;49.65;;
17594;Laerm;8916;47.086;15.920;2022-10-16T13:21:22;48.37;47.22;49.60;;
17594;Laerm;8916;47.086;15.920;2022-10-16T13:24:02;48.35;47.14;49.47;;
17594;Laerm;8916;47.086;15.920;2022-10-16T13:26:41;48.34;47.28;49.84;;
17594;Laerm;8916;47.086;15.920;2022-10-16T13:29:14;48.26;47.14;49.40;;
17594;Laerm;8916;47.086;15.920;2022-10-16T13:31:44;48.20;47.08;49.57;;
17594;Laerm;8916;47.086;15.920;2022-10-16T13:34:17;48.18;47.22;49.53;;
17594;Laerm;8916;47.086;15.920;2022-10-16T13:36:49;48.14;47.06;49.41;;
17594;Laerm;8916;47.086;15.920;2022-10-16T13:39:23;48.19;47.10;49.56;;
17594;Laerm;8916;47.086;15.920;2022-10-16T13:42:04;48.22;47.16;49.62;;
17594;Laerm;8916;47.086;15.920;2022-10-16T13:44:41;48.29;47.26;49.43;;
17594;Laerm;8916;47.086;15.920;2022-10-16T13:47:17;48.32;47.18;49.40;;
17594;Laerm;8916;47.086;15.920;2022-10-16T13:49:58;48.35;47.28;49.71;;
17594;Laerm;8916;47.086;15.920;2022-10-16T13:52:31;48.36;47.34;49.54;;
17594;Laerm;8916;47.086;15.920;2022-10-16T13:55:01;48.36;47.20;49.43;;
17594;Laerm;8916;47.086;15.920;2022-10-16T13:57:32;48.36;47.24;49.66;;
17594;Laerm;8916;47.086;15.920;2022-10-16T14:00:01;48.35;47.16;49.62;;
17594;Laerm;8916;47.086;15.920;2022-10-16T14:02:34;48.34;47.10;49.57;;
17594;Laerm;8916;47.086;15.920;2022-10-16T14:05:09;48.33;47.22;49.36;;
17594;Laerm;8916;47.086;15.920;2022-10-16T14:07:42;48.32;47.18;49.62;;
17594;Laerm;8916;47.086;15.920;2022-10-16T14:10:22;48.31;47.24;49.50;;
17594;Laerm;8916;47.086;15.920;2022-10-16T14:12:59;48.31;47.02;49.56;;
17594;Laerm;8916;47.086;15.920;2022-10-16T14:15:32;48.27;47.14;49.47;;
17594;Laerm;8916;47.086;15.920;2022-10-16T14:18:05;48.21;47.24;49.50;;
17594;Laerm;8916;47.086;15.920;2022-10-16T14:20:35;48.19;46.97;49.33;;
17594;Laerm;8916;47.086;15.920;2022-10-16T14:23:23;48.19;47.08;49.44;;
17594;Laerm;8916;47.086;15.920;2022-10-16T14:26:12;48.17;47.10;49.57;;
17594;Laerm;8916;47.086;15.920;2022-10-16T14:28:45;48.16;46.93;49.29;;
17594;Laerm;8916;47.086;15.920;2022-10-16T14:31:29;48.17;47.10;49.41;;
17594;Laerm;8916;47.086;15.920;2022-10-16T14:34:24;48.18;46.91;49.58;;